createdAt,value
2023-02-14T00:01:58.708Z,5.69
2023-02-14T00:07:03.148Z,5.78
2023-02-14T00:12:07.515Z,5.68
2023-02-14T00:22:45.827Z,5.69
2023-02-14T00:27:48.709Z,5.51
2023-02-14T00:32:51.638Z,5.54
2023-02-14T00:37:56.003Z,5.62
2023-02-14T00:42:58.948Z,5.59
2023-02-14T00:48:01.858Z,5.69
2023-02-14T00:53:06.156Z,5.66
2023-02-14T00:58:09.104Z,5.65
2023-02-14T01:03:12.010Z,5.55
2023-02-14T01:08:16.275Z,5.53
2023-02-14T01:13:20.126Z,5.71
2023-02-14T01:18:23.035Z,5.59
2023-02-14T01:23:27.264Z,5.61
2023-02-14T01:28:31.214Z,5.62
2023-02-14T01:33:34.152Z,5.57
2023-02-14T01:38:38.461Z,5.47
2023-02-14T01:43:57.105Z,5.41
2023-02-14T01:49:04.505Z,5.54
2023-02-14T01:54:10.623Z,5.37
2023-02-14T01:59:17.546Z,5.53
2023-02-14T02:04:24.677Z,5.49
2023-02-14T02:09:34.701Z,5.60
2023-02-14T02:14:37.887Z,5.45
2023-02-14T02:20:07.418Z,5.43
2023-02-14T02:25:26.583Z,5.34
2023-02-14T02:31:08.962Z,5.25
2023-02-14T02:36:33.309Z,5.38
2023-02-14T02:41:48.888Z,5.49
2023-02-14T02:46:59.969Z,5.38
2023-02-14T02:52:27.227Z,5.44
2023-02-14T02:57:36.979Z,5.44
2023-02-14T03:02:56.829Z,5.39
2023-02-14T03:08:01.264Z,5.50
2023-02-14T03:13:19.189Z,5.45
2023-02-14T03:18:43.728Z,5.31
2023-02-14T03:23:58.574Z,5.27
2023-02-14T03:29:09.131Z,5.05
2023-02-14T03:34:16.198Z,5.15
2023-02-14T03:39:25.457Z,5.34
2023-02-14T03:44:32.080Z,5.39
2023-02-14T03:49:41.352Z,5.32
2023-02-14T03:54:49.775Z,5.28
2023-02-14T03:59:54.588Z,5.13
2023-02-14T04:05:01.000Z,5.28
2023-02-14T04:10:05.621Z,5.29
2023-02-14T04:15:09.383Z,5.26
2023-02-14T04:20:12.649Z,5.30
2023-02-14T04:25:17.180Z,5.30
2023-02-14T04:30:20.981Z,5.45
2023-02-14T04:35:24.086Z,5.23
2023-02-14T04:40:28.369Z,5.20
2023-02-14T04:45:31.368Z,5.22
2023-02-14T04:50:34.332Z,5.21
2023-02-14T04:55:38.607Z,5.33
2023-02-14T05:00:41.625Z,5.32
2023-02-14T05:05:44.652Z,5.05
2023-02-14T05:10:49.383Z,5.24
2023-02-14T05:15:52.270Z,5.36
2023-02-14T05:20:55.990Z,5.32
2023-02-14T05:26:00.341Z,5.22
2023-02-14T05:31:03.753Z,5.24
2023-02-14T05:36:07.601Z,5.05
2023-02-14T05:41:11.925Z,5.19
2023-02-14T05:46:14.955Z,5.30
2023-02-14T05:51:17.833Z,5.12
2023-02-14T05:56:22.104Z,4.97
2023-02-14T06:01:25.012Z,4.96
2023-02-14T06:06:27.882Z,4.91
2023-02-14T06:11:32.139Z,4.98
2023-02-14T06:16:35.179Z,4.95
2023-02-14T06:21:38.269Z,4.66
2023-02-14T06:26:42.712Z,4.95
2023-02-14T06:31:45.733Z,4.68
2023-02-14T06:36:48.677Z,4.82
2023-02-14T06:41:53.157Z,4.78
2023-02-14T06:46:56.052Z,4.81
2023-02-14T06:51:58.985Z,4.96
2023-02-14T06:57:03.497Z,5.00
2023-02-14T07:02:06.438Z,4.96
2023-02-14T07:07:09.374Z,4.87
2023-02-14T07:12:13.649Z,4.68
2023-02-14T07:17:16.549Z,4.84
2023-02-14T07:22:19.468Z,4.93
2023-02-14T07:27:23.739Z,5.05
2023-02-14T07:32:26.870Z,5.22
2023-02-14T07:37:29.867Z,4.64
2023-02-14T07:42:34.251Z,4.95
2023-02-14T07:47:37.248Z,5.20
2023-02-14T07:52:40.125Z,5.27
2023-02-14T07:57:44.457Z,5.35
2023-02-14T08:02:47.421Z,5.31
2023-02-14T08:07:50.512Z,4.97
2023-02-14T08:13:00.463Z,4.96
2023-02-14T08:18:03.377Z,5.07
2023-02-14T08:23:06.273Z,5.31
2023-02-14T08:28:11.116Z,5.23
2023-02-14T08:33:14.123Z,5.18
2023-02-14T08:38:17.066Z,5.27
2023-02-14T08:43:21.517Z,5.38
2023-02-14T08:48:26.732Z,5.48
2023-02-14T08:53:29.621Z,4.88
2023-02-14T08:58:35.822Z,5.24
2023-02-14T09:03:39.092Z,4.79
2023-02-14T09:08:42.038Z,5.17
2023-02-14T09:13:47.020Z,5.57
2023-02-14T09:18:50.577Z,5.01
2023-02-14T09:23:53.858Z,4.69
2023-02-14T09:28:58.921Z,5.11
2023-02-14T09:34:01.805Z,5.17
2023-02-14T09:39:05.171Z,5.15
2023-02-14T09:44:15.600Z,5.56
2023-02-14T09:49:32.065Z,5.84
2023-02-14T09:54:37.057Z,5.61
2023-02-14T09:59:48.503Z,5.69
2023-02-14T10:05:02.747Z,5.83
2023-02-14T10:10:13.960Z,5.92
2023-02-14T10:15:21.886Z,6.00
2023-02-14T10:20:29.142Z,5.46
2023-02-14T10:25:40.153Z,5.18
2023-02-14T10:30:51.489Z,5.48
2023-02-14T10:50:09.434Z,5.98
2023-02-14T10:55:31.609Z,6.14
2023-02-14T11:00:39.264Z,6.18
2023-02-14T11:06:13.358Z,6.39
2023-02-14T11:18:32.686Z,6.37
2023-02-14T11:23:40.506Z,6.48
2023-02-14T11:28:57.379Z,6.18
2023-02-14T11:34:03.676Z,6.41
2023-02-14T11:39:22.462Z,6.28
2023-02-14T11:44:27.880Z,6.04
2023-02-14T11:49:33.872Z,6.34
2023-02-14T11:54:40.349Z,6.51
2023-02-14T11:59:45.180Z,6.25
2023-02-14T12:04:51.031Z,6.31
2023-02-14T12:10:22.468Z,6.35
2023-02-14T12:15:30.175Z,6.52
2023-02-14T12:27:41.732Z,6.40
2023-02-14T12:32:49.479Z,6.28
2023-02-14T12:38:05.183Z,6.55
2023-02-14T12:43:43.601Z,6.51
2023-02-14T12:49:05.077Z,6.57
2023-02-14T12:54:29.264Z,6.81
2023-02-14T12:59:43.618Z,6.71
2023-02-14T13:04:55.792Z,6.81
2023-02-14T13:10:04.862Z,6.98
2023-02-14T13:15:23.550Z,7.00
2023-02-14T13:20:55.289Z,7.02
2023-02-14T13:26:02.013Z,6.78
2023-02-14T13:31:06.756Z,6.89
2023-02-14T13:36:13.016Z,6.24
2023-02-14T13:41:17.672Z,6.03
2023-02-14T13:46:50.059Z,6.47
2023-02-14T13:57:36.449Z,6.50
2023-02-14T14:02:45.598Z,6.63
2023-02-14T14:07:48.518Z,6.65
2023-02-14T14:12:53.664Z,6.87
2023-02-14T14:18:42.913Z,6.75
2023-02-14T14:23:45.885Z,6.72
2023-02-14T14:28:48.927Z,6.70
2023-02-14T14:34:01.230Z,6.61
2023-02-14T14:39:04.211Z,6.20
2023-02-14T14:44:07.996Z,6.49
2023-02-14T14:49:13.791Z,6.62
2023-02-14T14:54:21.362Z,6.52
2023-02-14T14:59:31.034Z,6.39
2023-02-14T15:04:36.564Z,6.67
2023-02-14T15:09:42.329Z,6.16
2023-02-14T15:14:54.362Z,6.29
2023-02-14T15:20:02.214Z,6.21
2023-02-14T15:25:10.738Z,6.20
2023-02-14T15:30:26.098Z,6.17
2023-02-14T15:35:33.161Z,6.09
2023-02-14T15:40:38.798Z,5.97
2023-02-14T15:45:43.142Z,5.89
2023-02-14T15:50:49.808Z,5.71
2023-02-14T15:55:52.906Z,5.74
2023-02-14T16:00:56.702Z,5.70
2023-02-14T16:06:01.189Z,5.57
2023-02-14T16:11:08.893Z,5.38
2023-02-14T16:16:13.400Z,5.32
2023-02-14T16:21:21.375Z,5.21
2023-02-14T16:26:24.286Z,5.11
2023-02-14T16:31:28.437Z,5.01
2023-02-14T16:36:34.985Z,4.82
2023-02-14T16:41:37.960Z,4.82
2023-02-14T16:46:43.073Z,4.67
2023-02-14T16:51:48.654Z,4.56
2023-02-14T16:56:55.616Z,4.48
2023-02-14T17:01:59.313Z,4.42
2023-02-14T17:07:05.993Z,4.33
2023-02-14T17:12:16.127Z,4.27
2023-02-14T17:17:19.238Z,4.15
2023-02-14T17:22:23.623Z,4.11
2023-02-14T17:27:26.563Z,3.93
2023-02-14T17:32:29.472Z,3.80
2023-02-14T17:37:34.355Z,3.57
2023-02-14T17:42:38.688Z,3.59
2023-02-14T17:47:43.287Z,3.54
2023-02-14T17:52:47.637Z,3.48
2023-02-14T17:57:52.507Z,3.31
2023-02-14T18:02:55.490Z,3.19
2023-02-14T18:07:59.787Z,2.99
2023-02-14T18:13:03.347Z,3.00
2023-02-14T18:18:06.306Z,2.93
2023-02-14T18:23:11.225Z,2.91
2023-02-14T18:28:14.109Z,2.82
2023-02-14T18:33:17.869Z,2.66
2023-02-14T18:38:22.203Z,2.72
2023-02-14T18:43:25.140Z,2.62
2023-02-14T18:48:28.131Z,2.42
2023-02-14T18:53:32.505Z,2.55
2023-02-14T18:58:36.167Z,2.39
2023-02-14T19:03:40.521Z,2.29
2023-02-14T19:08:45.153Z,2.35
2023-02-14T19:13:49.929Z,2.31
2023-02-14T19:18:54.112Z,2.17
2023-02-14T19:23:58.995Z,2.13
2023-02-14T19:29:03.788Z,2.02
2023-02-14T19:34:08.789Z,1.91
2023-02-14T19:39:14.232Z,1.81
2023-02-14T19:44:18.505Z,1.89
2023-02-14T19:49:22.143Z,1.64
2023-02-14T19:54:26.619Z,1.53
2023-02-14T19:59:32.463Z,1.70
2023-02-14T20:04:35.330Z,1.52
2023-02-14T20:09:39.642Z,1.35
2023-02-14T20:14:50.912Z,1.39
2023-02-14T20:19:55.876Z,1.29
2023-02-14T20:25:00.618Z,1.27
2023-02-14T20:30:03.850Z,1.21
2023-02-14T20:35:07.526Z,1.11
2023-02-14T20:40:13.294Z,1.09
2023-02-14T20:45:16.183Z,1.06
2023-02-14T20:50:19.206Z,1.03
2023-02-14T20:55:23.540Z,0.96
2023-02-14T21:00:27.908Z,1.01
2023-02-14T21:05:30.858Z,0.87
2023-02-14T21:10:35.233Z,0.79
2023-02-14T21:15:38.170Z,0.78
2023-02-14T21:20:41.218Z,0.68
2023-02-14T21:25:45.480Z,0.63
2023-02-14T21:30:48.505Z,0.63
2023-02-14T21:35:51.573Z,0.46
2023-02-14T21:41:04.843Z,0.51
2023-02-14T21:46:09.440Z,0.34
2023-02-14T21:51:12.388Z,0.37
2023-02-14T21:56:19.771Z,0.38
2023-02-14T22:01:24.996Z,0.35
2023-02-14T22:06:28.607Z,0.27
2023-02-14T22:11:32.942Z,0.26
2023-02-14T22:16:36.853Z,0.24
2023-02-14T22:21:39.855Z,0.09
2023-02-14T22:26:44.107Z,0.07
2023-02-14T22:31:47.243Z,0.11
2023-02-14T22:36:51.226Z,-0.00
2023-02-14T22:41:56.297Z,0.00
2023-02-14T22:46:59.271Z,0.02
2023-02-14T22:52:02.156Z,-0.11
2023-02-14T22:57:06.477Z,-0.18
2023-02-14T23:02:09.798Z,-0.26
2023-02-14T23:07:12.690Z,-0.17
2023-02-14T23:12:30.865Z,-0.29
2023-02-14T23:17:51.079Z,-0.20
2023-02-14T23:22:53.956Z,-0.21
2023-02-14T23:27:58.257Z,-0.37
2023-02-14T23:33:01.147Z,-0.43
2023-02-14T23:38:04.012Z,-0.44
2023-02-14T23:43:08.274Z,-0.37
2023-02-14T23:48:11.677Z,-0.44
2023-02-14T23:53:15.361Z,-0.40
2023-02-14T23:58:19.606Z,-0.45
